Pulpca — PHMT — position and weather

sailwx.info

Track history (hours):
 
Tides and Currents Weather Stations Pressure Air Temp Water Temp Dewpoint Dewpoint Depression Visibility Wind Speed Wind Dir Waves Ship Positions

Pulpca

Last reported at 2014-Jul-23 13:33 UTC. Time now 2014-Jul-23 14:03 UTC.
Position N 56°35' E 017°56'.

Length 205 m; draft 6.8 m.

Type: Ship (hazmat cat A). MMSI: 245097000.

Date/timePositionNaut miles runAvg speedWind from/ knotsBaromVisibWave heightAir tempDewpointWater temp
2014-Jul-23 13:33N 56°35' E 017°56'1919.0
2014-Jul-23 12:33N 56°22' E 017°30'1918.8
2014-Jul-23 11:33N 56°10' E 017°04'1918.7
2014-Jul-23 10:33N 55°59' E 016°37'2018.7
2014-Jul-23 09:30N 55°49' E 016°06'1718.5
2014-Jul-23 08:33N 55°41' E 015°39'1818.3
2014-Jul-23 07:33N 55°32' E 015°11'1818.4
2014-Jul-23 06:33N 55°24' E 014°42'1818.5
2014-Jul-23 05:33N 55°09' E 014°21'1818.0
2014-Jul-23 04:33N 54°58' E 013°57'1818.4
2014-Jul-23 03:33N 54°53' E 013°27'1818.4
2014-Jul-23 02:33N 54°47' E 012°56'1918.5
2014-Jul-23 01:33N 54°38' E 012°28'1817.9
2014-Jul-23 00:33N 54°25' E 012°07'1918.6
2014-Jul-22 23:33N 54°16' E 011°39'1918.7
2014-Jul-22 22:33N 54°07' E 011°11'1514.6
2014-Jul-22 21:31N 53°57' E 010°52'4 1.8
2014-Jul-22 19:09N 53°54' E 010°47'0 0.1
2014-Jul-22 13:33N 53°54' E 010°47'5 5.3
2014-Jul-22 12:34N 53°58' E 010°53'1514.7
2014-Jul-22 11:33N 54°08' E 011°12'1616.4
2014-Jul-22 10:33N 54°17' E 011°34'1717.2
2014-Jul-22 09:33N 54°26' E 012°00'1515.5
2014-Jul-22 08:33N 54°37' E 012°19'1717.4
2014-Jul-22 07:33N 54°46' E 012°44'1717.1
2014-Jul-22 06:33N 54°47' E 013°14'1817.8
2014-Jul-22 05:33N 54°44' E 013°44'1817.7
2014-Jul-22 04:33N 54°40' E 014°14'1817.8
2014-Jul-22 03:34N 54°40' E 014°45'1919.4
2014-Jul-22 02:33N 54°42' E 015°18'1515.0
2014-Jul-22 01:34N 54°45' E 015°44'1817.4
2014-Jul-22 00:33N 54°47' E 016°14'1717.4
2014-Jul-21 23:33N 54°50' E 016°43'1817.7
2014-Jul-21 22:34N 54°54' E 017°13'1717.5
2014-Jul-21 21:34N 54°56' E 017°43'1817.5
2014-Jul-21 20:34N 54°57' E 018°14'517.9
2014-Jul-21 20:18N 54°57' E 018°22'1316.9
2014-Jul-21 19:33N 54°53' E 018°43'1615.5
2014-Jul-21 18:33N 54°40' E 018°57'1515.0
2014-Jul-21 17:33N 54°32' E 018°35'2 1.9
2014-Jul-21 16:31N 54°32' E 018°32'0 0.0
2014-Jul-21 15:31N 54°32' E 018°32'0 0.0
2014-Jul-21 14:31N 54°32' E 018°32'0 0.3
2014-Jul-21 13:33N 54°32' E 018°32'1211.7
2014-Jul-21 12:33N 54°35' E 018°52'1817.7
2014-Jul-21 11:33N 54°51' E 019°03'1818.0
2014-Jul-21 10:33N 55°08' E 019°13'14818.0
2014-Jul-21 02:23N 57°29' E 020°33'2018.2
2014-Jul-21 01:16N 57°48' E 020°45'1317.7
2014-Jul-21 00:33N 58°01' E 020°52'1817.8
2014-Jul-20 23:33N 58°17' E 021°02'1917.8
2014-Jul-20 22:31N 58°35' E 021°13'2317.8
2014-Jul-20 21:15N 58°56' E 021°28'1218.0
2014-Jul-20 20:33N 59°07' E 021°39'1717.4
2014-Jul-20 19:33N 59°15' E 022°09'1918.2
2014-Jul-20 18:32N 59°18' E 022°45'1818.3
2014-Jul-20 17:33N 59°22' E 023°20'2216.9
2014-Jul-20 16:14N 59°20' E 024°04'2 0.5
2014-Jul-20 11:29N 59°22' E 024°00'2120.4
2014-Jul-20 10:28N 59°32' E 023°26'2021.3
2014-Jul-20 09:33N 59°47' E 022°59'3 0.8
2014-Jul-20 06:22N 59°49' E 022°57'0 0.0
2014-Jul-20 05:31N 59°49' E 022°57'0 0.0
2014-Jul-20 04:25N 59°49' E 022°57'1 0.7
2014-Jul-20 03:33N 59°49' E 022°56'1413.7
2014-Jul-20 02:33N 59°35' E 022°56'16618.5
2014-Jul-19 17:33N 57°30' E 019°28'1918.7
2014-Jul-19 16:33N 57°15' E 019°06'1918.6
2014-Jul-19 15:33N 57°00' E 018°45'1918.6
2014-Jul-19 14:33N 56°46' E 018°23'1918.7
2014-Jul-19 13:33N 56°35' E 017°56'1919.2
2014-Jul-19 12:33N 56°23' E 017°28'1919.4
2014-Jul-19 11:33N 56°11' E 017°00'1919.1
2014-Jul-19 10:33N 55°60' E 016°34'1919.0
2014-Jul-19 09:33N 55°50' E 016°04'1919.0
2014-Jul-19 08:33N 55°41' E 015°35'1918.9
2014-Jul-19 07:33N 55°32' E 015°05'1919.0
2014-Jul-19 06:33N 55°21' E 014°38'1918.7
2014-Jul-19 05:33N 55°06' E 014°17'1818.2
2014-Jul-19 04:33N 54°58' E 013°49'1918.8
2014-Jul-19 03:33N 54°52' E 013°18'1818.4
2014-Jul-19 02:33N 54°46' E 012°48'1818.4
2014-Jul-19 01:33N 54°36' E 012°21'1717.0
2014-Jul-19 00:33N 54°24' E 012°00'1918.5
2014-Jul-18 23:33N 54°14' E 011°33'1918.5
2014-Jul-18 22:33N 54°04' E 011°06'1212.1
2014-Jul-18 21:33N 53°55' E 010°52'4 0.4
2014-Jul-18 13:09N 53°54' E 010°47'0 0.7
2014-Jul-18 12:33N 53°54' E 010°47'0 0.1
2014-Jul-18 11:33N 53°54' E 010°47'0 0.0
2014-Jul-18 09:12N 53°54' E 010°47'0 0.0
2014-Jul-18 08:33N 53°54' E 010°47'0 0.1
2014-Jul-18 07:27N 53°54' E 010°47'0 0.2
2014-Jul-18 05:24N 53°54' E 010°47'0 0.5
2014-Jul-18 04:33N 53°54' E 010°47'5 5.2
2014-Jul-18 03:33N 53°58' E 010°53'1515.4
2014-Jul-18 02:33N 54°08' E 011°12'1817.7
2014-Jul-18 01:33N 54°18' E 011°38'1818.0
2014-Jul-18 00:33N 54°26' E 012°05'1716.7
2014-Jul-17 23:33N 54°40' E 012°21'1818.4
2014-Jul-17 22:33N 54°48' E 012°50'1818.2
2014-Jul-17 21:33N 54°54' E 013°19'1818.1
2014-Jul-17 20:33N 55°01' E 013°49'1817.9
2014-Jul-17 19:33N 55°12' E 014°14'1818.4
2014-Jul-17 18:33N 55°26' E 014°33'1817.8
2014-Jul-17 17:33N 55°36' E 015°00'1817.8
2014-Jul-17 16:33N 55°44' E 015°27'1818.0
2014-Jul-17 15:33N 55°53' E 015°56'1818.2
2014-Jul-17 14:33N 56°02' E 016°23'9517.9
2014-Jul-17 09:16N 57°01' E 018°38'2018.0
2014-Jul-17 08:10N 57°17' E 019°01'1118.2
2014-Jul-17 07:33N 57°25' E 019°13'1817.9
2014-Jul-17 06:33N 57°40' E 019°33'1716.9
2014-Jul-17 05:32N 57°54' E 019°52'13416.1
2014-Jul-16 21:11N 59°34' E 022°44'813.0
2014-Jul-16 20:33N 59°39' E 022°57'10 1.0
2014-Jul-16 10:20N 59°49' E 022°57'1 0.1
2014-Jul-16 03:33N 59°49' E 022°56'34417.8
2014-Jul-15 08:15N 55°40' E 015°32'1623.3
2014-Jul-15 07:33N 55°32' E 015°07'1413.6
2014-Jul-15 06:33N 55°25' E 014°46'1818.3
2014-Jul-15 05:33N 55°12' E 014°24'1818.1
2014-Jul-15 04:33N 55°00' E 014°00'1918.8
2014-Jul-15 03:33N 54°55' E 013°29'1918.9
2014-Jul-15 02:33N 54°48' E 012°58'1818.2
2014-Jul-15 01:33N 54°40' E 012°30'1818.1
2014-Jul-15 00:33N 54°26' E 012°10'1818.1
2014-Jul-14 23:33N 54°18' E 011°43'1919.0
2014-Jul-14 22:33N 54°08' E 011°15'11 0.4
2014-Jul-13 17:10N 54°01' E 010°59'1117.4
2014-Jul-13 16:33N 54°09' E 011°13'1817.8
2014-Jul-13 15:33N 54°19' E 011°37'1818.0
2014-Jul-13 14:33N 54°26' E 012°06'  
Track history (hours):
 
Tides and Currents Weather Stations Pressure Air Temp Water Temp Dewpoint Dewpoint Depression Visibility Wind Speed Wind Dir Waves Ship Positions

Pulpca

Last reported at 2014-Jul-23 13:33 UTC. Time now 2014-Jul-23 14:03 UTC.
Position N 56°35' E 017°56'.

Length 205 m; draft 6.8 m.

Type: Ship (hazmat cat A). MMSI: 245097000.

Date/timePositionNaut miles runAvg speedWind from/ knotsBaromVisibWave heightAir tempDewpointWater temp
2014-Jul-23 13:33N 56°35' E 017°56'1919.0
2014-Jul-23 12:33N 56°22' E 017°30'1918.8
2014-Jul-23 11:33N 56°10' E 017°04'1918.7
2014-Jul-23 10:33N 55°59' E 016°37'2018.7
2014-Jul-23 09:30N 55°49' E 016°06'1718.5
2014-Jul-23 08:33N 55°41' E 015°39'1818.3
2014-Jul-23 07:33N 55°32' E 015°11'1818.4
2014-Jul-23 06:33N 55°24' E 014°42'1818.5
2014-Jul-23 05:33N 55°09' E 014°21'1818.0
2014-Jul-23 04:33N 54°58' E 013°57'1818.4
2014-Jul-23 03:33N 54°53' E 013°27'1818.4
2014-Jul-23 02:33N 54°47' E 012°56'1918.5
2014-Jul-23 01:33N 54°38' E 012°28'1817.9
2014-Jul-23 00:33N 54°25' E 012°07'1918.6
2014-Jul-22 23:33N 54°16' E 011°39'1918.7
2014-Jul-22 22:33N 54°07' E 011°11'1514.6
2014-Jul-22 21:31N 53°57' E 010°52'4 1.8
2014-Jul-22 19:09N 53°54' E 010°47'0 0.1
2014-Jul-22 13:33N 53°54' E 010°47'5 5.3
2014-Jul-22 12:34N 53°58' E 010°53'1514.7
2014-Jul-22 11:33N 54°08' E 011°12'1616.4
2014-Jul-22 10:33N 54°17' E 011°34'1717.2
2014-Jul-22 09:33N 54°26' E 012°00'1515.5
2014-Jul-22 08:33N 54°37' E 012°19'1717.4
2014-Jul-22 07:33N 54°46' E 012°44'1717.1
2014-Jul-22 06:33N 54°47' E 013°14'1817.8
2014-Jul-22 05:33N 54°44' E 013°44'1817.7
2014-Jul-22 04:33N 54°40' E 014°14'1817.8
2014-Jul-22 03:34N 54°40' E 014°45'1919.4
2014-Jul-22 02:33N 54°42' E 015°18'1515.0
2014-Jul-22 01:34N 54°45' E 015°44'1817.4
2014-Jul-22 00:33N 54°47' E 016°14'1717.4
2014-Jul-21 23:33N 54°50' E 016°43'1817.7
2014-Jul-21 22:34N 54°54' E 017°13'1717.5
2014-Jul-21 21:34N 54°56' E 017°43'1817.5
2014-Jul-21 20:34N 54°57' E 018°14'517.9
2014-Jul-21 20:18N 54°57' E 018°22'1316.9
2014-Jul-21 19:33N 54°53' E 018°43'1615.5
2014-Jul-21 18:33N 54°40' E 018°57'1515.0
2014-Jul-21 17:33N 54°32' E 018°35'2 1.9
2014-Jul-21 16:31N 54°32' E 018°32'0 0.0
2014-Jul-21 15:31N 54°32' E 018°32'0 0.0
2014-Jul-21 14:31N 54°32' E 018°32'0 0.3
2014-Jul-21 13:33N 54°32' E 018°32'1211.7
2014-Jul-21 12:33N 54°35' E 018°52'1817.7
2014-Jul-21 11:33N 54°51' E 019°03'1818.0
2014-Jul-21 10:33N 55°08' E 019°13'14818.0
2014-Jul-21 02:23N 57°29' E 020°33'2018.2
2014-Jul-21 01:16N 57°48' E 020°45'1317.7
2014-Jul-21 00:33N 58°01' E 020°52'1817.8
2014-Jul-20 23:33N 58°17' E 021°02'1917.8
2014-Jul-20 22:31N 58°35' E 021°13'2317.8
2014-Jul-20 21:15N 58°56' E 021°28'1218.0
2014-Jul-20 20:33N 59°07' E 021°39'1717.4
2014-Jul-20 19:33N 59°15' E 022°09'1918.2
2014-Jul-20 18:32N 59°18' E 022°45'1818.3
2014-Jul-20 17:33N 59°22' E 023°20'2216.9
2014-Jul-20 16:14N 59°20' E 024°04'2 0.5
2014-Jul-20 11:29N 59°22' E 024°00'2120.4
2014-Jul-20 10:28N 59°32' E 023°26'2021.3
2014-Jul-20 09:33N 59°47' E 022°59'3 0.8
2014-Jul-20 06:22N 59°49' E 022°57'0 0.0
2014-Jul-20 05:31N 59°49' E 022°57'0 0.0
2014-Jul-20 04:25N 59°49' E 022°57'1 0.7
2014-Jul-20 03:33N 59°49' E 022°56'1413.7
2014-Jul-20 02:33N 59°35' E 022°56'16618.5
2014-Jul-19 17:33N 57°30' E 019°28'1918.7
2014-Jul-19 16:33N 57°15' E 019°06'1918.6
2014-Jul-19 15:33N 57°00' E 018°45'1918.6
2014-Jul-19 14:33N 56°46' E 018°23'1918.7
2014-Jul-19 13:33N 56°35' E 017°56'1919.2
2014-Jul-19 12:33N 56°23' E 017°28'1919.4
2014-Jul-19 11:33N 56°11' E 017°00'1919.1
2014-Jul-19 10:33N 55°60' E 016°34'1919.0
2014-Jul-19 09:33N 55°50' E 016°04'1919.0
2014-Jul-19 08:33N 55°41' E 015°35'1918.9
2014-Jul-19 07:33N 55°32' E 015°05'1919.0
2014-Jul-19 06:33N 55°21' E 014°38'1918.7
2014-Jul-19 05:33N 55°06' E 014°17'1818.2
2014-Jul-19 04:33N 54°58' E 013°49'1918.8
2014-Jul-19 03:33N 54°52' E 013°18'1818.4
2014-Jul-19 02:33N 54°46' E 012°48'1818.4
2014-Jul-19 01:33N 54°36' E 012°21'1717.0
2014-Jul-19 00:33N 54°24' E 012°00'1918.5
2014-Jul-18 23:33N 54°14' E 011°33'1918.5
2014-Jul-18 22:33N 54°04' E 011°06'1212.1
2014-Jul-18 21:33N 53°55' E 010°52'4 0.4
2014-Jul-18 13:09N 53°54' E 010°47'0 0.7
2014-Jul-18 12:33N 53°54' E 010°47'0 0.1
2014-Jul-18 11:33N 53°54' E 010°47'0 0.0
2014-Jul-18 09:12N 53°54' E 010°47'0 0.0
2014-Jul-18 08:33N 53°54' E 010°47'0 0.1
2014-Jul-18 07:27N 53°54' E 010°47'0 0.2
2014-Jul-18 05:24N 53°54' E 010°47'0 0.5
2014-Jul-18 04:33N 53°54' E 010°47'5 5.2
2014-Jul-18 03:33N 53°58' E 010°53'1515.4
2014-Jul-18 02:33N 54°08' E 011°12'1817.7
2014-Jul-18 01:33N 54°18' E 011°38'1818.0
2014-Jul-18 00:33N 54°26' E 012°05'1716.7
2014-Jul-17 23:33N 54°40' E 012°21'1818.4
2014-Jul-17 22:33N 54°48' E 012°50'1818.2
2014-Jul-17 21:33N 54°54' E 013°19'1818.1
2014-Jul-17 20:33N 55°01' E 013°49'1817.9
2014-Jul-17 19:33N 55°12' E 014°14'1818.4
2014-Jul-17 18:33N 55°26' E 014°33'1817.8
2014-Jul-17 17:33N 55°36' E 015°00'1817.8
2014-Jul-17 16:33N 55°44' E 015°27'1818.0
2014-Jul-17 15:33N 55°53' E 015°56'1818.2
2014-Jul-17 14:33N 56°02' E 016°23'9517.9
2014-Jul-17 09:16N 57°01' E 018°38'2018.0
2014-Jul-17 08:10N 57°17' E 019°01'1118.2
2014-Jul-17 07:33N 57°25' E 019°13'1817.9
2014-Jul-17 06:33N 57°40' E 019°33'1716.9
2014-Jul-17 05:32N 57°54' E 019°52'13416.1
2014-Jul-16 21:11N 59°34' E 022°44'813.0
2014-Jul-16 20:33N 59°39' E 022°57'10 1.0
2014-Jul-16 10:20N 59°49' E 022°57'1 0.1
2014-Jul-16 03:33N 59°49' E 022°56'34417.8
2014-Jul-15 08:15N 55°40' E 015°32'1623.3
2014-Jul-15 07:33N 55°32' E 015°07'1413.6
2014-Jul-15 06:33N 55°25' E 014°46'1818.3
2014-Jul-15 05:33N 55°12' E 014°24'1818.1
2014-Jul-15 04:33N 55°00' E 014°00'1918.8
2014-Jul-15 03:33N 54°55' E 013°29'1918.9
2014-Jul-15 02:33N 54°48' E 012°58'1818.2
2014-Jul-15 01:33N 54°40' E 012°30'1818.1
2014-Jul-15 00:33N 54°26' E 012°10'1818.1
2014-Jul-14 23:33N 54°18' E 011°43'1919.0
2014-Jul-14 22:33N 54°08' E 011°15'11 0.4
2014-Jul-13 17:10N 54°01' E 010°59'1117.4
2014-Jul-13 16:33N 54°09' E 011°13'1817.8
2014-Jul-13 15:33N 54°19' E 011°37'1818.0
2014-Jul-13 14:33N 54°26' E 012°06'  

Dump ship's entire track history